Terminal Aerodrome Forecast
Issued by NWS

Home | Current Version | Previous Version | Text Only | Print | Product List | Glossary On
Versions: 1 2 3 4 5 6 7 8 9 10 11 12 13 14 15 16 17 18 19 20 21 22 23 24 25 26 27 28 29 30 31
000
FTUS44 KTSA 260800 AAA
TAFMLC
TAF AMD
KMLC 260831Z 2609/2706 19003KT 6SM BR BKN008 OVC028
      TEMPO 2609/2613 3SM BR OVC006
     FM261500 23008KT P6SM OVC007
     FM261800 18007KT P6SM SCT100 PROB30 2621/2703 -TSRA BKN050CB=

USA.gov is the U.S. government's official web portal to all federal, state and local government web resources and services.